sensor_id;sensor_type;location;lat;lon;timestamp;pressure;altitude;pressure_sealevel;temperature;humidity
16793;BME280;8513;42.662;23.350;2022-07-17T00:01:14;95288.81;;;24.35;42.74
16793;BME280;8513;42.662;23.350;2022-07-17T00:03:39;95285.06;;;24.25;42.97
16793;BME280;8513;42.662;23.350;2022-07-17T00:06:05;95286.22;;;24.17;43.26
16793;BME280;8513;42.662;23.350;2022-07-17T00:08:31;95289.25;;;24.20;43.22
16793;BME280;8513;42.662;23.350;2022-07-17T00:10:58;95297.31;;;24.20;43.06
16793;BME280;8513;42.662;23.350;2022-07-17T00:13:24;95301.97;;;24.13;42.92
16793;BME280;8513;42.662;23.350;2022-07-17T00:15:50;95298.56;;;24.06;43.28
16793;BME280;8513;42.662;23.350;2022-07-17T00:18:15;95303.00;;;24.12;42.99
16793;BME280;8513;42.662;23.350;2022-07-17T00:20:41;95298.28;;;23.96;43.33
16793;BME280;8513;42.662;23.350;2022-07-17T00:23:09;95309.97;;;23.90;43.79
16793;BME280;8513;42.662;23.350;2022-07-17T00:25:34;95303.22;;;23.99;43.50
16793;BME280;8513;42.662;23.350;2022-07-17T00:28:00;95302.47;;;23.92;43.67
16793;BME280;8513;42.662;23.350;2022-07-17T00:30:25;95311.59;;;23.91;43.59
16793;BME280;8513;42.662;23.350;2022-07-17T00:32:51;95305.41;;;23.90;43.78
16793;BME280;8513;42.662;23.350;2022-07-17T00:35:16;95306.91;;;23.86;43.74
16793;BME280;8513;42.662;23.350;2022-07-17T00:37:45;95308.41;;;23.82;43.76
16793;BME280;8513;42.662;23.350;2022-07-17T00:40:14;95308.03;;;23.78;43.87
16793;BME280;8513;42.662;23.350;2022-07-17T00:42:43;95307.22;;;23.78;43.85
16793;BME280;8513;42.662;23.350;2022-07-17T00:45:10;95306.03;;;23.74;43.84
16793;BME280;8513;42.662;23.350;2022-07-17T00:47:57;95306.03;;;23.74;43.69
16793;BME280;8513;42.662;23.350;2022-07-17T00:50:25;95312.88;;;23.70;44.17
16793;BME280;8513;42.662;23.350;2022-07-17T00:52:52;95308.88;;;23.79;43.76
16793;BME280;8513;42.662;23.350;2022-07-17T00:55:18;95310.44;;;23.68;43.98
16793;BME280;8513;42.662;23.350;2022-07-17T00:57:46;95323.56;;;23.58;44.20
16793;BME280;8513;42.662;23.350;2022-07-17T01:00:12;95325.94;;;23.66;44.06
16793;BME280;8513;42.662;23.350;2022-07-17T01:02:38;95315.41;;;23.46;44.47
16793;BME280;8513;42.662;23.350;2022-07-17T01:05:04;95321.16;;;23.68;44.01
16793;BME280;8513;42.662;23.350;2022-07-17T01:07:30;95318.03;;;23.53;44.18
16793;BME280;8513;42.662;23.350;2022-07-17T01:09:56;95330.09;;;23.62;43.77
16793;BME280;8513;42.662;23.350;2022-07-17T01:12:22;95340.84;;;23.62;43.78
16793;BME280;8513;42.662;23.350;2022-07-17T01:14:49;95327.22;;;23.45;44.38
16793;BME280;8513;42.662;23.350;2022-07-17T01:17:15;95331.97;;;23.43;44.39
16793;BME280;8513;42.662;23.350;2022-07-17T01:19:41;95332.34;;;23.47;44.13
16793;BME280;8513;42.662;23.350;2022-07-17T01:22:06;95329.50;;;23.60;43.89
16793;BME280;8513;42.662;23.350;2022-07-17T01:24:31;95327.44;;;23.44;43.98
16793;BME280;8513;42.662;23.350;2022-07-17T01:26:57;95338.56;;;23.47;43.70
16793;BME280;8513;42.662;23.350;2022-07-17T01:29:23;95324.88;;;23.49;43.62
16793;BME280;8513;42.662;23.350;2022-07-17T01:31:49;95321.53;;;23.53;43.32
16793;BME280;8513;42.662;23.350;2022-07-17T01:34:14;95325.84;;;23.54;42.96
16793;BME280;8513;42.662;23.350;2022-07-17T01:36:40;95328.63;;;23.48;43.03
16793;BME280;8513;42.662;23.350;2022-07-17T01:39:06;95318.34;;;23.45;43.04
16793;BME280;8513;42.662;23.350;2022-07-17T01:41:32;95321.69;;;23.40;43.24
16793;BME280;8513;42.662;23.350;2022-07-17T01:43:57;95322.34;;;23.36;43.36
16793;BME280;8513;42.662;23.350;2022-07-17T01:46:24;95325.66;;;23.38;42.99
16793;BME280;8513;42.662;23.350;2022-07-17T01:48:50;95333.50;;;23.39;43.06
16793;BME280;8513;42.662;23.350;2022-07-17T01:51:16;95328.19;;;23.32;43.22
16793;BME280;8513;42.662;23.350;2022-07-17T01:53:41;95323.88;;;23.31;43.19
16793;BME280;8513;42.662;23.350;2022-07-17T01:56:07;95317.44;;;23.32;44.38
16793;BME280;8513;42.662;23.350;2022-07-17T01:58:33;95328.84;;;23.46;44.60
16793;BME280;8513;42.662;23.350;2022-07-17T02:00:58;95324.59;;;23.39;45.23
16793;BME280;8513;42.662;23.350;2022-07-17T02:03:24;95328.94;;;23.21;47.23
16793;BME280;8513;42.662;23.350;2022-07-17T02:05:50;95323.03;;;23.13;47.44
16793;BME280;8513;42.662;23.350;2022-07-17T02:08:15;95330.19;;;23.19;47.31
16793;BME280;8513;42.662;23.350;2022-07-17T02:10:41;95338.97;;;23.07;47.58
16793;BME280;8513;42.662;23.350;2022-07-17T02:13:06;95322.19;;;22.94;47.93
16793;BME280;8513;42.662;23.350;2022-07-17T02:15:32;95333.31;;;22.97;47.40
16793;BME280;8513;42.662;23.350;2022-07-17T02:17:57;95339.81;;;22.83;47.79
16793;BME280;8513;42.662;23.350;2022-07-17T02:20:23;95335.09;;;22.78;47.50
16793;BME280;8513;42.662;23.350;2022-07-17T02:22:49;95333.44;;;22.77;46.75
16793;BME280;8513;42.662;23.350;2022-07-17T02:25:15;95336.84;;;22.66;47.40
16793;BME280;8513;42.662;23.350;2022-07-17T02:27:41;95331.47;;;22.66;47.02
16793;BME280;8513;42.662;23.350;2022-07-17T02:30:12;95334.78;;;22.68;46.61
16793;BME280;8513;42.662;23.350;2022-07-17T02:32:38;95332.75;;;22.63;46.73
16793;BME280;8513;42.662;23.350;2022-07-17T02:35:04;95324.38;;;22.53;47.02
16793;BME280;8513;42.662;23.350;2022-07-17T02:37:30;95336.94;;;22.53;46.73
16793;BME280;8513;42.662;23.350;2022-07-17T02:39:55;95332.47;;;22.46;46.87
16793;BME280;8513;42.662;23.350;2022-07-17T02:42:25;95336.63;;;22.42;46.60
16793;BME280;8513;42.662;23.350;2022-07-17T02:44:52;95334.53;;;22.44;46.93
16793;BME280;8513;42.662;23.350;2022-07-17T02:47:25;95339.69;;;22.14;48.54
16793;BME280;8513;42.662;23.350;2022-07-17T02:49:51;95335.13;;;22.15;47.96
16793;BME280;8513;42.662;23.350;2022-07-17T02:52:17;95336.94;;;22.28;47.65
16793;BME280;8513;42.662;23.350;2022-07-17T02:54:42;95348.03;;;22.31;47.54
16793;BME280;8513;42.662;23.350;2022-07-17T02:57:08;95342.34;;;22.14;47.95
16793;BME280;8513;42.662;23.350;2022-07-17T02:59:33;95351.59;;;22.25;47.66
16793;BME280;8513;42.662;23.350;2022-07-17T03:01:59;95349.25;;;22.35;46.96
16793;BME280;8513;42.662;23.350;2022-07-17T03:04:25;95353.44;;;22.24;47.09
16793;BME280;8513;42.662;23.350;2022-07-17T03:06:50;95357.16;;;22.23;47.23
16793;BME280;8513;42.662;23.350;2022-07-17T03:09:16;95356.34;;;22.16;47.26
16793;BME280;8513;42.662;23.350;2022-07-17T03:11:41;95360.25;;;22.27;46.88
16793;BME280;8513;42.662;23.350;2022-07-17T03:14:06;95366.78;;;22.31;46.77
16793;BME280;8513;42.662;23.350;2022-07-17T03:16:32;95366.44;;;22.21;46.88
16793;BME280;8513;42.662;23.350;2022-07-17T03:18:57;95375.75;;;22.12;46.83
16793;BME280;8513;42.662;23.350;2022-07-17T03:21:23;95368.84;;;22.29;46.47
16793;BME280;8513;42.662;23.350;2022-07-17T03:23:48;95375.31;;;22.21;46.17
16793;BME280;8513;42.662;23.350;2022-07-17T03:26:14;95377.56;;;22.18;46.99
16793;BME280;8513;42.662;23.350;2022-07-17T03:28:39;95380.19;;;22.31;45.76
16793;BME280;8513;42.662;23.350;2022-07-17T03:31:04;95368.72;;;22.24;46.60
16793;BME280;8513;42.662;23.350;2022-07-17T03:33:30;95383.97;;;22.17;47.10
16793;BME280;8513;42.662;23.350;2022-07-17T03:35:55;95384.16;;;22.22;46.43
16793;BME280;8513;42.662;23.350;2022-07-17T03:38:21;95374.06;;;22.24;46.84
16793;BME280;8513;42.662;23.350;2022-07-17T03:40:47;95381.28;;;22.17;46.84
16793;BME280;8513;42.662;23.350;2022-07-17T03:43:12;95389.75;;;22.14;46.92
16793;BME280;8513;42.662;23.350;2022-07-17T03:45:39;95384.22;;;22.09;47.17
16793;BME280;8513;42.662;23.350;2022-07-17T03:48:04;95396.13;;;22.13;47.44
16793;BME280;8513;42.662;23.350;2022-07-17T03:50:30;95388.75;;;22.08;47.61
16793;BME280;8513;42.662;23.350;2022-07-17T03:52:55;95391.19;;;22.16;47.11
16793;BME280;8513;42.662;23.350;2022-07-17T03:55:21;95392.44;;;22.07;46.70
16793;BME280;8513;42.662;23.350;2022-07-17T03:57:46;95405.63;;;22.09;46.46
16793;BME280;8513;42.662;23.350;2022-07-17T04:00:12;95410.19;;;22.08;46.54
16793;BME280;8513;42.662;23.350;2022-07-17T04:02:38;95422.09;;;22.12;46.79
16793;BME280;8513;42.662;23.350;2022-07-17T04:05:03;95412.66;;;22.03;47.02
16793;BME280;8513;42.662;23.350;2022-07-17T04:07:29;95422.13;;;22.06;46.35
16793;BME280;8513;42.662;23.350;2022-07-17T04:09:57;95427.47;;;22.19;46.04
16793;BME280;8513;42.662;23.350;2022-07-17T04:12:23;95421.84;;;22.27;45.80
16793;BME280;8513;42.662;23.350;2022-07-17T04:14:49;95416.50;;;22.20;46.47
16793;BME280;8513;42.662;23.350;2022-07-17T04:17:15;95426.53;;;22.32;46.40
16793;BME280;8513;42.662;23.350;2022-07-17T04:19:40;95427.88;;;22.48;45.17
16793;BME280;8513;42.662;23.350;2022-07-17T04:22:06;95430.81;;;22.39;46.10
16793;BME280;8513;42.662;23.350;2022-07-17T04:24:31;95439.59;;;22.53;45.73
16793;BME280;8513;42.662;23.350;2022-07-17T04:26:57;95439.41;;;22.55;46.19
16793;BME280;8513;42.662;23.350;2022-07-17T04:29:22;95436.63;;;22.68;45.39
16793;BME280;8513;42.662;23.350;2022-07-17T04:31:47;95436.69;;;22.61;46.17
16793;BME280;8513;42.662;23.350;2022-07-17T04:34:13;95439.03;;;22.76;45.65
16793;BME280;8513;42.662;23.350;2022-07-17T04:36:38;95435.75;;;22.74;46.04
16793;BME280;8513;42.662;23.350;2022-07-17T04:39:04;95437.84;;;22.72;46.34
16793;BME280;8513;42.662;23.350;2022-07-17T04:41:29;95435.91;;;22.79;46.20
16793;BME280;8513;42.662;23.350;2022-07-17T04:43:55;95446.78;;;22.91;46.25
16793;BME280;8513;42.662;23.350;2022-07-17T04:46:20;95450.88;;;22.94;45.98
16793;BME280;8513;42.662;23.350;2022-07-17T04:48:45;95447.28;;;23.06;46.08
16793;BME280;8513;42.662;23.350;2022-07-17T04:51:11;95442.16;;;23.05;45.66
16793;BME280;8513;42.662;23.350;2022-07-17T04:53:36;95444.94;;;23.17;44.94
16793;BME280;8513;42.662;23.350;2022-07-17T04:56:03;95453.53;;;23.25;44.61
16793;BME280;8513;42.662;23.350;2022-07-17T04:58:28;95458.19;;;23.37;42.98
16793;BME280;8513;42.662;23.350;2022-07-17T05:01:19;95468.34;;;23.28;42.85
16793;BME280;8513;42.662;23.350;2022-07-17T05:03:45;95464.00;;;23.33;42.69
16793;BME280;8513;42.662;23.350;2022-07-17T05:06:11;95471.91;;;23.47;40.91
16793;BME280;8513;42.662;23.350;2022-07-17T05:08:36;95464.75;;;23.41;39.76
16793;BME280;8513;42.662;23.350;2022-07-17T05:11:02;95477.13;;;23.60;39.93
16793;BME280;8513;42.662;23.350;2022-07-17T05:13:27;95480.09;;;23.52;39.44
16793;BME280;8513;42.662;23.350;2022-07-17T05:15:53;95479.38;;;23.45;39.66
16793;BME280;8513;42.662;23.350;2022-07-17T05:18:18;95482.22;;;23.50;38.95
16793;BME280;8513;42.662;23.350;2022-07-17T05:20:44;95471.75;;;23.42;39.36
16793;BME280;8513;42.662;23.350;2022-07-17T05:23:09;95469.94;;;23.36;38.91
16793;BME280;8513;42.662;23.350;2022-07-17T05:25:35;95477.72;;;23.44;38.26
16793;BME280;8513;42.662;23.350;2022-07-17T05:28:00;95479.53;;;23.50;36.77
16793;BME280;8513;42.662;23.350;2022-07-17T05:30:27;95483.84;;;23.51;36.53
16793;BME280;8513;42.662;23.350;2022-07-17T05:32:52;95484.06;;;23.49;36.44
16793;BME280;8513;42.662;23.350;2022-07-17T05:35:18;95478.63;;;23.56;37.41
16793;BME280;8513;42.662;23.350;2022-07-17T05:37:43;95474.91;;;23.57;37.20
16793;BME280;8513;42.662;23.350;2022-07-17T05:40:09;95466.59;;;23.40;37.14
16793;BME280;8513;42.662;23.350;2022-07-17T05:42:34;95475.13;;;23.55;36.87
16793;BME280;8513;42.662;23.350;2022-07-17T05:44:59;95472.97;;;23.64;36.62
16793;BME280;8513;42.662;23.350;2022-07-17T05:47:25;95484.66;;;23.76;36.79
16793;BME280;8513;42.662;23.350;2022-07-17T05:49:51;95474.19;;;23.68;36.31
16793;BME280;8513;42.662;23.350;2022-07-17T05:52:16;95485.84;;;23.81;35.87
16793;BME280;8513;42.662;23.350;2022-07-17T05:54:42;95476.59;;;23.95;35.23
16793;BME280;8513;42.662;23.350;2022-07-17T05:57:08;95479.88;;;23.97;34.49
16793;BME280;8513;42.662;23.350;2022-07-17T05:59:33;95482.97;;;24.01;34.34
16793;BME280;8513;42.662;23.350;2022-07-17T06:01:59;95480.13;;;24.14;34.13
16793;BME280;8513;42.662;23.350;2022-07-17T06:04:25;95483.47;;;24.09;33.96
16793;BME280;8513;42.662;23.350;2022-07-17T06:06:50;95488.53;;;23.99;34.00
16793;BME280;8513;42.662;23.350;2022-07-17T06:09:15;95488.59;;;24.11;34.26
16793;BME280;8513;42.662;23.350;2022-07-17T06:11:41;95483.78;;;24.01;34.58
16793;BME280;8513;42.662;23.350;2022-07-17T06:14:06;95494.97;;;23.98;34.35
16793;BME280;8513;42.662;23.350;2022-07-17T06:16:32;95486.81;;;24.05;34.19
16793;BME280;8513;42.662;23.350;2022-07-17T06:18:57;95490.25;;;23.93;33.87
16793;BME280;8513;42.662;23.350;2022-07-17T06:21:23;95489.97;;;24.02;34.42
16793;BME280;8513;42.662;23.350;2022-07-17T06:23:48;95491.91;;;24.13;34.41
16793;BME280;8513;42.662;23.350;2022-07-17T06:26:14;95488.91;;;24.21;34.73
16793;BME280;8513;42.662;23.350;2022-07-17T06:28:39;95494.22;;;24.28;34.21
16793;BME280;8513;42.662;23.350;2022-07-17T06:31:05;95493.28;;;24.34;34.09
16793;BME280;8513;42.662;23.350;2022-07-17T06:33:30;95493.41;;;24.27;34.14
16793;BME280;8513;42.662;23.350;2022-07-17T06:35:55;95501.47;;;24.09;34.70
16793;BME280;8513;42.662;23.350;2022-07-17T06:38:21;95501.72;;;24.19;34.25
16793;BME280;8513;42.662;23.350;2022-07-17T06:40:47;95492.53;;;24.27;34.49
16793;BME280;8513;42.662;23.350;2022-07-17T06:43:12;95494.34;;;24.33;34.93
16793;BME280;8513;42.662;23.350;2022-07-17T06:45:38;95486.44;;;24.38;35.07
16793;BME280;8513;42.662;23.350;2022-07-17T06:48:04;95490.09;;;24.43;34.86
16793;BME280;8513;42.662;23.350;2022-07-17T06:50:29;95495.84;;;24.47;33.62
16793;BME280;8513;42.662;23.350;2022-07-17T06:52:55;95498.59;;;24.40;33.68
16793;BME280;8513;42.662;23.350;2022-07-17T06:55:20;95486.16;;;24.46;34.12
16793;BME280;8513;42.662;23.350;2022-07-17T06:57:45;95493.91;;;24.54;33.69
16793;BME280;8513;42.662;23.350;2022-07-17T07:00:11;95494.34;;;24.51;34.23
16793;BME280;8513;42.662;23.350;2022-07-17T07:02:37;95492.38;;;24.58;34.36
16793;BME280;8513;42.662;23.350;2022-07-17T07:05:03;95492.03;;;24.55;34.55
16793;BME280;8513;42.662;23.350;2022-07-17T07:07:29;95491.78;;;24.56;34.55
16793;BME280;8513;42.662;23.350;2022-07-17T07:09:55;95490.44;;;24.65;33.91
16793;BME280;8513;42.662;23.350;2022-07-17T07:12:20;95508.66;;;24.63;34.26
16793;BME280;8513;42.662;23.350;2022-07-17T07:14:45;95508.34;;;24.72;33.53
16793;BME280;8513;42.662;23.350;2022-07-17T07:17:11;95505.75;;;24.65;34.27
16793;BME280;8513;42.662;23.350;2022-07-17T07:19:36;95504.00;;;24.71;34.05
16793;BME280;8513;42.662;23.350;2022-07-17T07:22:02;95504.63;;;24.73;35.09
16793;BME280;8513;42.662;23.350;2022-07-17T07:24:27;95499.72;;;24.81;34.06
16793;BME280;8513;42.662;23.350;2022-07-17T07:26:53;95502.13;;;24.71;34.54
16793;BME280;8513;42.662;23.350;2022-07-17T07:29:18;95507.41;;;24.78;33.60
16793;BME280;8513;42.662;23.350;2022-07-17T07:31:44;95503.97;;;24.89;33.76
16793;BME280;8513;42.662;23.350;2022-07-17T07:34:10;95500.34;;;24.95;34.23
16793;BME280;8513;42.662;23.350;2022-07-17T07:36:35;95505.00;;;24.88;34.60
16793;BME280;8513;42.662;23.350;2022-07-17T07:39:01;95514.13;;;24.87;34.63
16793;BME280;8513;42.662;23.350;2022-07-17T07:41:26;95503.03;;;24.95;33.66
16793;BME280;8513;42.662;23.350;2022-07-17T07:43:51;95507.72;;;25.00;34.04
16793;BME280;8513;42.662;23.350;2022-07-17T07:46:17;95509.03;;;25.09;33.54
16793;BME280;8513;42.662;23.350;2022-07-17T07:48:42;95507.69;;;25.18;33.21
16793;BME280;8513;42.662;23.350;2022-07-17T07:51:08;95511.88;;;25.26;33.20
16793;BME280;8513;42.662;23.350;2022-07-17T07:53:34;95501.47;;;25.18;32.75
16793;BME280;8513;42.662;23.350;2022-07-17T07:55:59;95504.59;;;25.15;33.21
16793;BME280;8513;42.662;23.350;2022-07-17T07:58:25;95501.59;;;25.23;33.37
16793;BME280;8513;42.662;23.350;2022-07-17T08:00:50;95508.75;;;25.29;32.98
16793;BME280;8513;42.662;23.350;2022-07-17T08:03:16;95506.19;;;25.34;32.39
16793;BME280;8513;42.662;23.350;2022-07-17T08:05:42;95505.22;;;25.28;32.81
16793;BME280;8513;42.662;23.350;2022-07-17T08:08:08;95504.31;;;25.35;33.12
16793;BME280;8513;42.662;23.350;2022-07-17T08:10:34;95512.75;;;25.50;32.67
16793;BME280;8513;42.662;23.350;2022-07-17T08:12:59;95506.56;;;25.61;31.74
16793;BME280;8513;42.662;23.350;2022-07-17T08:15:25;95503.72;;;25.44;32.46
16793;BME280;8513;42.662;23.350;2022-07-17T08:17:51;95506.44;;;25.56;32.03
16793;BME280;8513;42.662;23.350;2022-07-17T08:20:18;95510.19;;;25.67;31.08
16793;BME280;8513;42.662;23.350;2022-07-17T08:22:44;95507.13;;;25.63;31.47
16793;BME280;8513;42.662;23.350;2022-07-17T08:25:10;95511.34;;;25.71;31.58
16793;BME280;8513;42.662;23.350;2022-07-17T08:27:37;95509.03;;;25.74;31.49
16793;BME280;8513;42.662;23.350;2022-07-17T08:30:04;95508.28;;;25.79;30.99
16793;BME280;8513;42.662;23.350;2022-07-17T08:32:30;95512.06;;;25.78;30.55
16793;BME280;8513;42.662;23.350;2022-07-17T08:34:56;95507.97;;;25.64;30.91
16793;BME280;8513;42.662;23.350;2022-07-17T08:37:22;95510.88;;;25.62;31.59
16793;BME280;8513;42.662;23.350;2022-07-17T08:39:47;95498.59;;;25.78;31.62
16793;BME280;8513;42.662;23.350;2022-07-17T08:42:13;95508.56;;;25.89;31.64
16793;BME280;8513;42.662;23.350;2022-07-17T08:44:42;95515.25;;;25.99;30.24
16793;BME280;8513;42.662;23.350;2022-07-17T08:47:09;95517.44;;;25.90;30.67
16793;BME280;8513;42.662;23.350;2022-07-17T08:49:41;95515.94;;;25.94;30.60
16793;BME280;8513;42.662;23.350;2022-07-17T08:52:09;95512.06;;;26.02;31.20
16793;BME280;8513;42.662;23.350;2022-07-17T08:54:36;95504.81;;;26.02;31.10
16793;BME280;8513;42.662;23.350;2022-07-17T08:57:02;95499.28;;;26.09;30.86
16793;BME280;8513;42.662;23.350;2022-07-17T08:59:29;95503.47;;;26.16;30.17
16793;BME280;8513;42.662;23.350;2022-07-17T09:01:54;95501.63;;;26.17;29.92
16793;BME280;8513;42.662;23.350;2022-07-17T09:04:19;95487.06;;;26.18;30.22
16793;BME280;8513;42.662;23.350;2022-07-17T09:06:45;95486.13;;;26.24;31.10
16793;BME280;8513;42.662;23.350;2022-07-17T09:09:13;95488.09;;;26.29;30.37
16793;BME280;8513;42.662;23.350;2022-07-17T09:11:45;95492.31;;;26.25;30.51
16793;BME280;8513;42.662;23.350;2022-07-17T09:14:11;95492.69;;;26.28;30.32
16793;BME280;8513;42.662;23.350;2022-07-17T09:16:55;95492.25;;;26.48;30.70
16793;BME280;8513;42.662;23.350;2022-07-17T09:19:28;95487.84;;;26.42;29.75
16793;BME280;8513;42.662;23.350;2022-07-17T09:22:23;95488.41;;;26.56;30.10
16793;BME280;8513;42.662;23.350;2022-07-17T09:24:57;95485.13;;;26.54;29.38
16793;BME280;8513;42.662;23.350;2022-07-17T09:30:17;95485.78;;;26.61;30.09
16793;BME280;8513;42.662;23.350;2022-07-17T09:32:43;95490.81;;;26.69;30.41
16793;BME280;8513;42.662;23.350;2022-07-17T09:35:10;95480.59;;;26.71;30.36
16793;BME280;8513;42.662;23.350;2022-07-17T09:37:37;95481.81;;;26.80;29.73
16793;BME280;8513;42.662;23.350;2022-07-17T09:40:10;95479.09;;;26.64;27.97
16793;BME280;8513;42.662;23.350;2022-07-17T09:42:36;95479.91;;;26.93;29.25
16793;BME280;8513;42.662;23.350;2022-07-17T09:45:07;95484.00;;;27.12;30.44
16793;BME280;8513;42.662;23.350;2022-07-17T09:47:39;95485.16;;;27.16;27.74
16793;BME280;8513;42.662;23.350;2022-07-17T09:50:07;95482.69;;;27.26;28.33
16793;BME280;8513;42.662;23.350;2022-07-17T09:52:35;95483.56;;;27.32;29.00
16793;BME280;8513;42.662;23.350;2022-07-17T09:55:02;95500.66;;;27.55;28.41
16793;BME280;8513;42.662;23.350;2022-07-17T09:57:40;95492.56;;;27.55;26.99
16793;BME280;8513;42.662;23.350;2022-07-17T10:00:07;95487.47;;;27.58;26.63
16793;BME280;8513;42.662;23.350;2022-07-17T10:02:39;95486.56;;;27.53;27.64
16793;BME280;8513;42.662;23.350;2022-07-17T10:05:07;95483.44;;;27.78;27.59
16793;BME280;8513;42.662;23.350;2022-07-17T10:07:34;95482.63;;;27.94;27.62
16793;BME280;8513;42.662;23.350;2022-07-17T10:09:59;95487.66;;;28.07;26.94
16793;BME280;8513;42.662;23.350;2022-07-17T10:12:25;95481.38;;;28.24;27.57
16793;BME280;8513;42.662;23.350;2022-07-17T10:14:51;95490.50;;;28.40;27.04
16793;BME280;8513;42.662;23.350;2022-07-17T10:17:20;95486.72;;;28.41;26.33
16793;BME280;8513;42.662;23.350;2022-07-17T10:19:53;95492.88;;;28.36;26.06
16793;BME280;8513;42.662;23.350;2022-07-17T10:22:20;95478.31;;;28.59;26.05
16793;BME280;8513;42.662;23.350;2022-07-17T10:24:56;95472.44;;;28.67;26.80
16793;BME280;8513;42.662;23.350;2022-07-17T10:27:25;95472.91;;;28.86;25.78
16793;BME280;8513;42.662;23.350;2022-07-17T10:30:06;95468.91;;;28.94;26.33
16793;BME280;8513;42.662;23.350;2022-07-17T10:32:33;95465.50;;;29.03;26.61
16793;BME280;8513;42.662;23.350;2022-07-17T10:37:39;95463.72;;;29.14;26.01
16793;BME280;8513;42.662;23.350;2022-07-17T10:48:28;95458.59;;;29.18;26.11
16793;BME280;8513;42.662;23.350;2022-07-17T10:50:55;95463.94;;;29.45;25.94
16793;BME280;8513;42.662;23.350;2022-07-17T10:53:28;95449.50;;;29.66;25.54
16793;BME280;8513;42.662;23.350;2022-07-17T11:01:16;95458.97;;;30.17;25.70
16793;BME280;8513;42.662;23.350;2022-07-17T11:03:52;95457.41;;;30.21;24.42
16793;BME280;8513;42.662;23.350;2022-07-17T11:06:20;95444.72;;;30.37;23.99
16793;BME280;8513;42.662;23.350;2022-07-17T11:11:18;95449.38;;;30.51;24.75
16793;BME280;8513;42.662;23.350;2022-07-17T11:13:44;95441.34;;;30.92;24.17
16793;BME280;8513;42.662;23.350;2022-07-17T11:16:10;95449.78;;;31.11;24.43
16793;BME280;8513;42.662;23.350;2022-07-17T11:18:35;95440.97;;;30.63;24.19
16793;BME280;8513;42.662;23.350;2022-07-17T11:21:03;95445.84;;;30.46;24.49
16793;BME280;8513;42.662;23.350;2022-07-17T11:23:31;95434.50;;;30.01;24.87
16793;BME280;8513;42.662;23.350;2022-07-17T11:26:03;95429.56;;;30.46;24.87
16793;BME280;8513;42.662;23.350;2022-07-17T11:28:39;95430.97;;;30.79;24.47
16793;BME280;8513;42.662;23.350;2022-07-17T11:31:24;95430.75;;;30.86;24.42
16793;BME280;8513;42.662;23.350;2022-07-17T11:34:00;95427.72;;;30.77;24.38
16793;BME280;8513;42.662;23.350;2022-07-17T11:36:31;95426.97;;;31.12;23.57
16793;BME280;8513;42.662;23.350;2022-07-17T11:38:58;95425.91;;;31.44;23.64
16793;BME280;8513;42.662;23.350;2022-07-17T11:41:51;95423.13;;;31.64;23.19
16793;BME280;8513;42.662;23.350;2022-07-17T11:44:20;95420.69;;;31.68;22.69
16793;BME280;8513;42.662;23.350;2022-07-17T11:46:47;95411.22;;;31.50;23.20
16793;BME280;8513;42.662;23.350;2022-07-17T11:49:34;95409.84;;;31.27;23.26
16793;BME280;8513;42.662;23.350;2022-07-17T11:52:38;95406.66;;;30.16;24.38
16793;BME280;8513;42.662;23.350;2022-07-17T11:55:04;95411.47;;;30.04;25.10
16793;BME280;8513;42.662;23.350;2022-07-17T11:57:44;95412.22;;;30.67;23.98
16793;BME280;8513;42.662;23.350;2022-07-17T12:00:10;95403.06;;;30.94;24.18
16793;BME280;8513;42.662;23.350;2022-07-17T12:02:36;95399.22;;;30.64;23.61
16793;BME280;8513;42.662;23.350;2022-07-17T12:05:01;95401.91;;;30.59;24.28
16793;BME280;8513;42.662;23.350;2022-07-17T12:07:47;95396.00;;;31.24;23.39
16793;BME280;8513;42.662;23.350;2022-07-17T12:10:18;95393.28;;;30.88;23.57
16793;BME280;8513;42.662;23.350;2022-07-17T12:13:11;95398.16;;;31.52;22.44
16793;BME280;8513;42.662;23.350;2022-07-17T12:15:54;95400.78;;;31.98;21.84
16793;BME280;8513;42.662;23.350;2022-07-17T12:18:28;95405.63;;;32.12;21.74
16793;BME280;8513;42.662;23.350;2022-07-17T12:20:59;95407.25;;;32.13;21.71
16793;BME280;8513;42.662;23.350;2022-07-17T12:23:31;95399.44;;;31.85;21.84
16793;BME280;8513;42.662;23.350;2022-07-17T12:26:04;95400.81;;;31.73;21.71
16793;BME280;8513;42.662;23.350;2022-07-17T12:28:30;95399.78;;;31.33;22.70
16793;BME280;8513;42.662;23.350;2022-07-17T12:30:56;95403.81;;;31.76;23.25
16793;BME280;8513;42.662;23.350;2022-07-17T12:33:21;95402.75;;;31.57;23.34
16793;BME280;8513;42.662;23.350;2022-07-17T12:35:46;95402.47;;;31.69;23.04
16793;BME280;8513;42.662;23.350;2022-07-17T12:38:12;95389.13;;;31.77;23.62
16793;BME280;8513;42.662;23.350;2022-07-17T12:40:37;95393.25;;;31.59;23.49
16793;BME280;8513;42.662;23.350;2022-07-17T12:43:03;95388.69;;;30.98;23.73
16793;BME280;8513;42.662;23.350;2022-07-17T12:45:28;95384.56;;;30.70;24.84
16793;BME280;8513;42.662;23.350;2022-07-17T12:47:54;95398.59;;;30.31;25.42
16793;BME280;8513;42.662;23.350;2022-07-17T12:50:19;95391.81;;;30.34;25.38
16793;BME280;8513;42.662;23.350;2022-07-17T12:52:45;95392.41;;;30.62;24.75
16793;BME280;8513;42.662;23.350;2022-07-17T12:55:10;95393.28;;;30.98;24.34
16793;BME280;8513;42.662;23.350;2022-07-17T12:57:36;95389.50;;;30.94;24.48
16793;BME280;8513;42.662;23.350;2022-07-17T13:00:03;95384.59;;;31.16;24.20
16793;BME280;8513;42.662;23.350;2022-07-17T13:02:28;95385.56;;;31.87;23.63
16793;BME280;8513;42.662;23.350;2022-07-17T13:04:54;95374.88;;;32.16;24.01
16793;BME280;8513;42.662;23.350;2022-07-17T13:07:19;95385.00;;;32.00;23.75
16793;BME280;8513;42.662;23.350;2022-07-17T13:09:45;95372.97;;;32.17;23.34
16793;BME280;8513;42.662;23.350;2022-07-17T13:12:10;95380.09;;;32.57;23.32
16793;BME280;8513;42.662;23.350;2022-07-17T13:14:36;95372.25;;;32.90;22.91
16793;BME280;8513;42.662;23.350;2022-07-17T13:17:01;95376.81;;;33.00;22.75
16793;BME280;8513;42.662;23.350;2022-07-17T13:19:27;95381.03;;;32.82;22.84
16793;BME280;8513;42.662;23.350;2022-07-17T13:21:53;95373.81;;;33.01;22.70